ANA88 RJTT-RJNK
Flight info
| Callsign | ANA88 |
|---|---|
| Flight time | N/A |
| Altitude | 26000 |
| Route | BEKLA Y884 KMC |
| Aircraft | B772/H-SDE2E3FGHIJ5LORVWXY/LB1D1 |
Departure
| Time | 2026-02-17 13:41 |
|---|---|
| Airport | Tokyo Haneda International Airport (RJTT) |
Arrival
| Time | N/A |
|---|---|
| Airport | Komatsu Airport / JASDF Komatsu Air Base (RJNK) |
| Time | Latitude | Longitude | Altitude | Speed | Heading |
|---|---|---|---|---|---|
| 2026-02-17 12:39 | 35.55323 | 139.78840 | 28 ft | 0 kts | 240° |
| 2026-02-17 12:39 | 35.55465 | 139.78876 | 28 ft | 0 kts | 329° |
| 2026-02-17 13:29 | 35.55459 | 139.78880 | 26 ft | 2 kts | 326° |
| 2026-02-17 13:30 | 35.55443 | 139.78895 | 26 ft | 3 kts | 311° |
| 2026-02-17 13:30 | 35.55431 | 139.78915 | 27 ft | 3 kts | 293° |
| 2026-02-17 13:30 | 35.55425 | 139.78938 | 27 ft | 3 kts | 275° |
| 2026-02-17 13:31 | 35.55430 | 139.78986 | 26 ft | 3 kts | 249° |
| 2026-02-17 13:31 | 35.55437 | 139.79005 | 25 ft | 1 kts | 242° |
| 2026-02-17 13:31 | 35.55437 | 139.79007 | 25 ft | 0 kts | 242° |
| 2026-02-17 13:33 | 35.55425 | 139.78980 | 28 ft | 7 kts | 241° |
| 2026-02-17 13:33 | 35.55385 | 139.78941 | 28 ft | 8 kts | 201° |
| 2026-02-17 13:34 | 35.55326 | 139.78951 | 28 ft | 9 kts | 157° |
| 2026-02-17 13:34 | 35.55268 | 139.78986 | 28 ft | 9 kts | 150° |
| 2026-02-17 13:34 | 35.55227 | 139.79046 | 28 ft | 9 kts | 107° |
| 2026-02-17 13:35 | 35.55276 | 139.79197 | 28 ft | 10 kts | 59° |
| 2026-02-17 13:35 | 35.55302 | 139.79265 | 28 ft | 9 kts | 79° |
| 2026-02-17 13:35 | 35.55265 | 139.79339 | 28 ft | 13 kts | 144° |
| 2026-02-17 13:35 | 35.55177 | 139.79402 | 28 ft | 17 kts | 149° |
| 2026-02-17 13:36 | 35.55067 | 139.79481 | 28 ft | 19 kts | 149° |
| 2026-02-17 13:36 | 35.54954 | 139.79560 | 28 ft | 19 kts | 150° |
| 2026-02-17 13:36 | 35.54851 | 139.79632 | 28 ft | 16 kts | 150° |
| 2026-02-17 13:36 | 35.54757 | 139.79700 | 28 ft | 16 kts | 149° |
| 2026-02-17 13:37 | 35.54660 | 139.79768 | 28 ft | 16 kts | 150° |
| 2026-02-17 13:37 | 35.54566 | 139.79835 | 28 ft | 16 kts | 149° |
| 2026-02-17 13:37 | 35.54482 | 139.79896 | 28 ft | 10 kts | 150° |
| 2026-02-17 13:37 | 35.54422 | 139.79939 | 28 ft | 12 kts | 150° |
| 2026-02-17 13:38 | 35.54312 | 139.80015 | 28 ft | 20 kts | 150° |
| 2026-02-17 13:38 | 35.54222 | 139.80079 | 28 ft | 9 kts | 143° |
| 2026-02-17 13:38 | 35.54198 | 139.80147 | 28 ft | 9 kts | 77° |
| 2026-02-17 13:39 | 35.54205 | 139.80173 | 28 ft | 0 kts | 63° |
| 2026-02-17 13:39 | 35.54213 | 139.80192 | 26 ft | 10 kts | 63° |
| 2026-02-17 13:40 | 35.54271 | 139.80266 | 29 ft | 10 kts | 17° |
| 2026-02-17 13:40 | 35.54336 | 139.80252 | 29 ft | 9 kts | 329° |
| 2026-02-17 13:40 | 35.54458 | 139.80164 | 29 ft | 58 kts | 329° |
| 2026-02-17 13:40 | 35.55155 | 139.79693 | 31 ft | 166 kts | 332° |
| 2026-02-17 13:41 | 35.56286 | 139.78847 | 789 ft | 201 kts | 330° |
| 2026-02-17 13:41 | 35.57472 | 139.77994 | 2353 ft | 196 kts | 334° |
| 2026-02-17 13:41 | 35.58784 | 139.77575 | 3719 ft | 201 kts | 5° |
| 2026-02-17 13:41 | 35.60145 | 139.78162 | 4780 ft | 218 kts | 39° |
| 2026-02-17 13:42 | 35.61066 | 139.79714 | 5619 ft | 238 kts | 75° |
| 2026-02-17 13:42 | 35.61257 | 139.81807 | 6328 ft | 258 kts | 94° |
| 2026-02-17 13:42 | 35.61180 | 139.84097 | 6910 ft | 275 kts | 97° |
| 2026-02-17 13:43 | 35.60999 | 139.88982 | 8558 ft | 297 kts | 95° |
| 2026-02-17 13:43 | 35.61013 | 139.91555 | 9380 ft | 305 kts | 84° |
| 2026-02-17 13:43 | 35.61794 | 139.94021 | 10166 ft | 317 kts | 52° |
| 2026-02-17 13:43 | 35.63439 | 139.95785 | 10988 ft | 315 kts | 21° |
| 2026-02-17 13:44 | 35.65488 | 139.96408 | 11847 ft | 303 kts | 356° |
| 2026-02-17 13:44 | 35.67609 | 139.96533 | 12665 ft | 308 kts | 354° |
| 2026-02-17 13:44 | 35.69720 | 139.96462 | 13460 ft | 298 kts | 337° |
| 2026-02-17 13:44 | 35.71450 | 139.95311 | 14271 ft | 275 kts | 305° |
| 2026-02-17 13:45 | 35.72298 | 139.93332 | 15143 ft | 257 kts | 275° |
| 2026-02-17 13:45 | 35.72442 | 139.91167 | 15886 ft | 255 kts | 271° |
| 2026-02-17 13:45 | 35.72565 | 139.88977 | 16678 ft | 258 kts | 272° |
| 2026-02-17 13:45 | 35.72738 | 139.86774 | 17544 ft | 259 kts | 273° |
| 2026-02-17 13:46 | 35.72957 | 139.84568 | 18404 ft | 260 kts | 274° |
| 2026-02-17 13:46 | 35.73213 | 139.82357 | 19155 ft | 261 kts | 275° |
| 2026-02-17 13:46 | 35.73462 | 139.80162 | 19837 ft | 262 kts | 274° |
| 2026-02-17 13:47 | 35.73918 | 139.75827 | 20117 ft | 266 kts | 275° |
| 2026-02-17 13:47 | 35.74201 | 139.73587 | 20107 ft | 263 kts | 276° |